createdAt,value
2023-06-28T00:04:45.251Z,84.98
2023-06-28T00:09:50.802Z,85.09
2023-06-28T00:14:55.782Z,85.30
2023-06-28T00:20:12.173Z,85.67
2023-06-28T00:25:16.346Z,85.80
2023-06-28T00:30:20.455Z,86.29
2023-06-28T00:35:24.470Z,86.82
2023-06-28T00:40:29.434Z,86.91
2023-06-28T00:45:33.562Z,86.92
2023-06-28T00:50:38.348Z,87.04
2023-06-28T00:55:42.577Z,87.08
2023-06-28T01:00:47.285Z,87.57
2023-06-28T01:05:54.309Z,87.73
2023-06-28T01:11:00.368Z,87.48
2023-06-28T01:16:04.733Z,87.77
2023-06-28T01:21:12.497Z,87.75
2023-06-28T01:26:18.770Z,87.41
2023-06-28T01:31:23.380Z,86.81
2023-06-28T01:36:28.075Z,86.13
2023-06-28T01:41:32.879Z,85.59
2023-06-28T01:46:38.581Z,85.39
2023-06-28T01:51:44.868Z,85.76
2023-06-28T01:56:49.643Z,86.50
2023-06-28T02:01:55.334Z,87.09
2023-06-28T02:06:59.416Z,87.68
2023-06-28T02:12:04.329Z,87.60
2023-06-28T02:17:16.026Z,86.81
2023-06-28T02:22:20.724Z,86.63
2023-06-28T02:27:24.922Z,85.90
2023-06-28T02:32:32.318Z,86.63
2023-06-28T02:37:36.474Z,86.79
2023-06-28T02:42:40.570Z,87.24
2023-06-28T02:47:44.503Z,86.63
2023-06-28T02:52:48.905Z,87.56
2023-06-28T02:57:53.832Z,88.58
2023-06-28T03:02:57.859Z,89.14
2023-06-28T03:08:06.343Z,88.34
2023-06-28T03:13:10.422Z,87.77
2023-06-28T03:18:14.822Z,86.96
2023-06-28T03:23:19.193Z,86.77
2023-06-28T03:28:23.205Z,88.08
2023-06-28T03:33:27.218Z,87.37
2023-06-28T03:38:31.116Z,88.01
2023-06-28T03:43:35.625Z,87.44
2023-06-28T03:48:39.611Z,87.87
2023-06-28T03:53:43.783Z,87.43
2023-06-28T03:58:47.703Z,85.65
2023-06-28T04:03:51.897Z,78.53
2023-06-28T04:08:56.714Z,76.17
2023-06-28T04:14:00.744Z,71.72
2023-06-28T04:19:06.847Z,71.10
2023-06-28T04:24:11.590Z,68.46
2023-06-28T04:29:15.518Z,67.35
2023-06-28T04:34:19.979Z,67.96
2023-06-28T04:39:24.207Z,70.71
2023-06-28T04:44:35.693Z,72.86
2023-06-28T04:49:40.063Z,71.95
2023-06-28T04:54:44.190Z,70.76
2023-06-28T04:59:48.566Z,65.19
2023-06-28T05:04:53.100Z,60.30
2023-06-28T05:09:57.106Z,55.29
2023-06-28T05:15:01.168Z,52.31
2023-06-28T05:20:06.745Z,53.82
2023-06-28T05:25:10.901Z,56.81
2023-06-28T05:30:14.981Z,61.15
2023-06-28T05:35:18.897Z,63.87
2023-06-28T05:40:23.031Z,66.14
2023-06-28T05:45:31.023Z,68.22
2023-06-28T05:50:37.153Z,68.54
2023-06-28T05:55:43.281Z,68.72
2023-06-28T06:00:47.338Z,69.32
2023-06-28T06:05:54.720Z,69.38
2023-06-28T06:10:58.787Z,69.66
2023-06-28T06:16:03.212Z,70.55
2023-06-28T06:21:07.743Z,70.77
2023-06-28T06:26:12.971Z,71.43
2023-06-28T06:31:16.844Z,72.45
2023-06-28T06:36:20.961Z,71.85
2023-06-28T06:41:25.592Z,69.68
2023-06-28T06:46:29.764Z,69.38
2023-06-28T06:51:34.980Z,67.01
2023-06-28T06:56:39.032Z,65.18
2023-06-28T07:01:43.056Z,63.60
2023-06-28T07:06:48.164Z,63.93
2023-06-28T07:11:52.219Z,61.78
2023-06-28T07:16:56.404Z,61.96
2023-06-28T07:22:00.399Z,63.13
2023-06-28T07:27:04.949Z,61.54
2023-06-28T07:32:09.842Z,60.55
2023-06-28T07:37:13.867Z,59.44
2023-06-28T07:42:17.999Z,59.76
2023-06-28T07:47:22.069Z,60.58
2023-06-28T07:52:25.981Z,57.78
2023-06-28T07:57:29.903Z,56.96
2023-06-28T08:02:33.842Z,56.82
2023-06-28T08:07:37.969Z,56.71
2023-06-28T08:12:42.160Z,57.27
2023-06-28T08:17:49.576Z,55.59
2023-06-28T08:22:53.763Z,54.59
2023-06-28T08:27:57.681Z,54.81
2023-06-28T08:33:02.098Z,55.13
2023-06-28T08:38:06.041Z,53.95
2023-06-28T08:43:12.419Z,55.92
2023-06-28T08:48:28.451Z,52.66
2023-06-28T08:53:34.362Z,52.69
2023-06-28T08:58:39.692Z,54.49
2023-06-28T09:03:45.148Z,53.92
2023-06-28T09:08:49.762Z,52.18
2023-06-28T09:13:54.587Z,53.63
2023-06-28T09:18:58.558Z,55.69
2023-06-28T09:24:02.675Z,57.08
2023-06-28T09:29:13.013Z,57.74
2023-06-28T09:34:24.158Z,59.65
2023-06-28T09:39:38.529Z,61.29
2023-06-28T09:44:56.521Z,63.16
2023-06-28T09:50:04.058Z,64.90
2023-06-28T09:55:09.504Z,67.18
2023-06-28T10:00:14.914Z,67.11
2023-06-28T10:05:21.126Z,67.02
2023-06-28T10:10:25.365Z,67.48
2023-06-28T10:15:34.436Z,67.10
2023-06-28T10:20:40.505Z,67.10
2023-06-28T10:25:48.408Z,66.82
2023-06-28T10:30:54.249Z,65.99
2023-06-28T10:35:58.354Z,66.02
2023-06-28T10:41:03.110Z,66.03
2023-06-28T10:46:24.334Z,65.85
2023-06-28T10:51:31.485Z,66.24
2023-06-28T10:56:49.205Z,66.92
2023-06-28T11:02:00.210Z,67.35
2023-06-28T11:07:04.701Z,66.78
2023-06-28T11:12:16.636Z,66.77
2023-06-28T11:17:21.363Z,67.44
2023-06-28T11:22:52.321Z,67.83
2023-06-28T11:27:59.927Z,68.31
2023-06-28T11:33:04.281Z,68.69
2023-06-28T11:38:09.322Z,69.23
2023-06-28T11:43:13.263Z,69.10
2023-06-28T11:48:17.281Z,69.34
2023-06-28T11:53:22.825Z,69.01
2023-06-28T11:58:30.343Z,69.30
2023-06-28T12:03:39.286Z,68.99
2023-06-28T12:08:43.328Z,69.30
2023-06-28T12:13:47.232Z,68.72
2023-06-28T12:19:02.422Z,68.41
2023-06-28T12:24:22.711Z,67.13
2023-06-28T12:29:30.724Z,66.62
2023-06-28T12:34:36.356Z,65.95
2023-06-28T12:39:42.178Z,66.45
2023-06-28T12:44:56.838Z,66.84
2023-06-28T12:50:01.292Z,66.60
2023-06-28T12:55:06.298Z,65.24
2023-06-28T13:00:11.273Z,63.37
2023-06-28T13:05:15.703Z,63.81
2023-06-28T13:10:19.585Z,64.34
2023-06-28T13:15:23.444Z,63.48
2023-06-28T13:20:27.225Z,63.82
2023-06-28T13:25:31.038Z,63.82
2023-06-28T13:30:35.014Z,64.34
2023-06-28T13:35:38.876Z,64.63
2023-06-28T13:40:42.659Z,65.46
2023-06-28T13:45:46.456Z,66.26
2023-06-28T13:50:50.731Z,66.05
2023-06-28T13:55:54.675Z,66.01
2023-06-28T14:00:59.765Z,66.41
2023-06-28T14:06:04.165Z,67.66
2023-06-28T14:11:08.585Z,67.59
2023-06-28T14:16:12.691Z,67.95
2023-06-28T14:21:17.140Z,67.71
2023-06-28T14:26:21.035Z,68.14
2023-06-28T14:31:25.930Z,68.47
2023-06-28T14:36:29.988Z,69.08
2023-06-28T14:41:33.918Z,69.99
2023-06-28T14:46:38.471Z,71.58
2023-06-28T14:51:42.478Z,72.69
2023-06-28T14:56:46.488Z,73.05
2023-06-28T15:01:50.260Z,74.65
2023-06-28T15:06:54.036Z,74.40
2023-06-28T15:11:57.803Z,73.82
2023-06-28T15:17:01.972Z,73.51
2023-06-28T15:22:06.650Z,73.00
2023-06-28T15:27:13.848Z,72.93
2023-06-28T15:32:18.777Z,72.95
2023-06-28T15:37:26.394Z,73.57
2023-06-28T15:42:30.678Z,74.12
2023-06-28T15:47:36.361Z,75.38
2023-06-28T15:52:41.012Z,75.60
2023-06-28T15:57:45.875Z,75.57
2023-06-28T16:02:50.632Z,77.50
2023-06-28T16:07:55.035Z,78.27
2023-06-28T16:13:01.703Z,78.25
2023-06-28T16:18:12.672Z,79.23
2023-06-28T16:24:14.064Z,78.45
2023-06-28T16:30:33.506Z,78.71
2023-06-28T16:35:44.328Z,79.13
2023-06-28T16:40:51.234Z,78.03
2023-06-28T16:46:00.432Z,78.12
2023-06-28T16:51:07.089Z,77.58
2023-06-28T16:56:11.298Z,78.00
2023-06-28T17:01:15.808Z,77.98
2023-06-28T17:06:20.120Z,78.10
2023-06-28T17:11:32.732Z,78.24
2023-06-28T17:16:42.214Z,78.57
2023-06-28T17:21:46.558Z,79.09
2023-06-28T17:26:58.235Z,79.43
2023-06-28T17:32:10.900Z,79.65
2023-06-28T17:37:15.955Z,79.68
2023-06-28T17:42:20.360Z,79.48
2023-06-28T17:47:24.823Z,78.94
2023-06-28T17:52:32.539Z,79.03
2023-06-28T17:57:37.364Z,78.31
2023-06-28T18:02:45.914Z,77.78
2023-06-28T18:07:50.853Z,77.49
2023-06-28T18:13:02.597Z,77.11
2023-06-28T18:18:10.918Z,76.88
2023-06-28T18:23:15.576Z,76.93
2023-06-28T18:28:20.359Z,76.87
2023-06-28T18:33:25.024Z,76.87
2023-06-28T18:38:29.912Z,77.02
2023-06-28T18:43:35.658Z,77.02
2023-06-28T18:48:40.162Z,76.98
2023-06-28T18:53:44.952Z,76.42
2023-06-28T18:58:49.823Z,75.89
2023-06-28T19:03:54.663Z,75.89
2023-06-28T19:08:59.792Z,75.78
2023-06-28T19:14:05.196Z,75.82
2023-06-28T19:19:10.305Z,75.84
2023-06-28T19:24:17.864Z,75.91
2023-06-28T19:29:22.740Z,75.88
2023-06-28T19:34:27.008Z,75.93
2023-06-28T19:39:31.017Z,76.12
2023-06-28T19:44:37.212Z,76.26
2023-06-28T19:49:42.444Z,76.50
2023-06-28T19:54:46.731Z,76.72
2023-06-28T19:59:51.768Z,76.83
2023-06-28T20:04:55.885Z,77.04
2023-06-28T20:09:59.902Z,77.30
2023-06-28T20:15:06.026Z,77.55
2023-06-28T20:20:10.633Z,77.81
2023-06-28T20:25:14.676Z,77.86
2023-06-28T20:30:21.158Z,78.15
2023-06-28T20:35:31.921Z,78.26
2023-06-28T20:40:36.022Z,78.32
2023-06-28T20:45:40.002Z,78.29
2023-06-28T20:50:44.090Z,78.53
2023-06-28T20:55:48.132Z,78.84
2023-06-28T21:00:52.239Z,79.02
2023-06-28T21:05:57.177Z,79.38
2023-06-28T21:11:01.121Z,80.31
2023-06-28T21:16:05.747Z,80.00
2023-06-28T21:21:12.543Z,80.46
2023-06-28T21:26:16.703Z,80.10
2023-06-28T21:31:21.286Z,80.30
2023-06-28T21:36:26.960Z,79.77
2023-06-28T21:41:35.701Z,79.75
2023-06-28T21:46:39.888Z,80.50
2023-06-28T21:51:43.920Z,80.25
2023-06-28T21:56:47.820Z,80.91
2023-06-28T22:01:51.778Z,80.73
2023-06-28T22:12:05.995Z,81.41
2023-06-28T22:17:11.395Z,81.07
2023-06-28T22:22:15.663Z,81.32
2023-06-28T22:27:19.987Z,82.46
2023-06-28T22:32:23.950Z,82.72
2023-06-28T22:37:27.963Z,82.38
2023-06-28T22:42:32.208Z,83.16
2023-06-28T22:47:36.649Z,83.42
2023-06-28T22:52:45.732Z,82.67
2023-06-28T22:57:49.941Z,82.25
2023-06-28T23:02:54.551Z,83.17
2023-06-28T23:07:59.515Z,83.85
2023-06-28T23:13:03.471Z,83.99
2023-06-28T23:18:08.002Z,84.56
2023-06-28T23:23:14.400Z,85.37
2023-06-28T23:28:22.503Z,84.81
2023-06-28T23:33:26.461Z,85.93
2023-06-28T23:38:30.463Z,86.30
2023-06-28T23:43:34.573Z,86.32
2023-06-28T23:48:39.162Z,86.34
2023-06-28T23:53:43.246Z,86.51
2023-06-28T23:58:47.307Z,86.01
